Time;durP1;ratioP1;P1;durP2;ratioP2;P2;SDS_P1;SDS_P2;PMS_P1;PMS_P2;Temp;Humidity;BMP_temperature;BMP_pressure;BME280_temperature;BME280_humidity;BME280_pressure;Samples;Min_cycle;Max_cycle;Signal;HPM_P1;HPM_P2
2022/01/08 00:00:40;;;;;;;12.73;5.20;;;;;;;0.15;100.00;100594.72;5041532;28;20032;-54
2022/01/08 00:03:05;;;;;;;13.40;5.72;;;;;;;0.08;100.00;100598.78;5026057;28;20055;-53
2022/01/08 00:05:31;;;;;;;9.25;2.75;;;;;;;-0.01;100.00;100599.47;5037444;28;20219;-51
2022/01/08 00:07:56;;;;;;;3.63;1.40;;;;;;;-0.01;100.00;100596.88;5044493;28;20076;-52
2022/01/08 00:10:22;;;;;;;4.55;2.00;;;;;;;0.05;100.00;100588.56;5038936;28;20030;-53
2022/01/08 00:12:49;;;;;;;8.60;3.03;;;;;;;0.09;100.00;100587.38;5040916;28;20036;-55
2022/01/08 00:15:15;;;;;;;6.68;2.13;;;;;;;0.10;100.00;100581.19;5041823;28;20401;-51
2022/01/08 00:17:40;;;;;;;3.47;1.85;;;;;;;0.16;100.00;100578.13;5040228;28;20032;-54
2022/01/08 00:20:06;;;;;;;10.35;3.67;;;;;;;0.18;100.00;100591.88;5040608;28;20025;-52
2022/01/08 00:22:32;;;;;;;5.28;2.15;;;;;;;0.22;100.00;100589.84;5045961;28;20060;-52
2022/01/08 00:24:57;;;;;;;8.23;3.15;;;;;;;0.19;100.00;100584.88;5036662;28;20053;-52
2022/01/08 00:27:23;;;;;;;9.70;4.35;;;;;;;0.18;100.00;100588.41;5043465;28;20474;-52
2022/01/08 00:29:49;;;;;;;6.78;4.07;;;;;;;0.24;100.00;100587.97;5023050;28;20036;-54
2022/01/08 00:32:15;;;;;;;4.97;2.08;;;;;;;0.27;100.00;100586.88;5025530;28;20032;-49
2022/01/08 00:34:42;;;;;;;6.00;2.30;;;;;;;0.29;100.00;100588.41;5037183;28;20140;-52
2022/01/08 00:37:07;;;;;;;4.55;2.03;;;;;;;0.32;100.00;100577.72;5038179;28;20041;-49
2022/01/08 00:39:33;;;;;;;3.83;2.05;;;;;;;0.35;100.00;100579.28;5039892;28;20068;-55
2022/01/08 00:41:59;;;;;;;2.95;2.47;;;;;;;0.40;100.00;100571.91;5041463;28;20037;-51
2022/01/08 00:44:24;;;;;;;3.03;0.85;;;;;;;0.40;100.00;100577.13;5041352;28;20525;-50
2022/01/08 00:46:50;;;;;;;3.20;2.03;;;;;;;0.42;100.00;100585.66;5040387;28;20043;-50
2022/01/08 00:49:15;;;;;;;6.32;1.45;;;;;;;0.43;100.00;100582.91;5035803;28;20112;-54
2022/01/08 00:51:40;;;;;;;2.97;1.23;;;;;;;0.46;100.00;100567.97;5044287;28;20037;-54
2022/01/08 00:54:06;;;;;;;1.92;1.05;;;;;;;0.49;100.00;100559.88;5037529;28;20444;-53
2022/01/08 00:56:31;;;;;;;7.93;1.00;;;;;;;0.51;100.00;100558.81;5039834;28;20107;-53
2022/01/08 00:58:57;;;;;;;0.75;0.40;;;;;;;0.51;100.00;100553.59;5038900;28;20517;-50
2022/01/08 01:01:22;;;;;;;1.45;0.82;;;;;;;0.54;100.00;100558.59;5040099;28;20029;-49
2022/01/08 01:03:47;;;;;;;3.28;1.95;;;;;;;0.53;100.00;100554.31;5041129;28;20203;-52
2022/01/08 01:06:13;;;;;;;2.45;0.90;;;;;;;0.57;100.00;100558.34;5025872;28;20028;-52
2022/01/08 01:08:38;;;;;;;2.33;1.38;;;;;;;0.58;100.00;100546.13;5039713;28;20041;-53
2022/01/08 01:11:04;;;;;;;2.05;1.05;;;;;;;0.58;100.00;100539.09;5010555;28;20103;-51
2022/01/08 01:13:29;;;;;;;4.38;1.05;;;;;;;0.56;100.00;100546.22;5042200;28;20056;-52
2022/01/08 01:15:54;;;;;;;9.77;1.15;;;;;;;0.55;100.00;100560.25;5033068;28;20386;-51
2022/01/08 01:18:20;;;;;;;4.90;1.30;;;;;;;0.53;100.00;100551.69;5036841;28;20025;-51
2022/01/08 01:20:45;;;;;;;2.05;0.93;;;;;;;0.54;100.00;100548.16;5043692;28;20028;-53
2022/01/08 01:23:18;;;;;;;3.15;2.25;;;;;;;0.54;100.00;100555.97;5041856;28;20089;-53
2022/01/08 01:25:51;;;;;;;3.35;0.85;;;;;;;0.55;100.00;100549.81;5025765;28;20398;-53
2022/01/08 01:42:06;;;;;;;2.08;1.85;;;;;;;0.45;100.00;100541.06;5041526;28;20163;-53
2022/01/08 01:47:27;;;;;;;1.95;0.95;;;;;;;0.49;100.00;100541.63;5036429;28;20529;-54
2022/01/08 01:49:53;;;;;;;1.75;1.17;;;;;;;0.50;100.00;100541.50;5041491;28;20453;-52
2022/01/08 01:52:18;;;;;;;5.20;2.03;;;;;;;0.56;100.00;100535.78;5038587;28;20063;-50
2022/01/08 01:54:44;;;;;;;3.72;1.27;;;;;;;0.59;100.00;100535.53;5043719;28;20477;-54
2022/01/08 01:57:17;;;;;;;1.67;0.88;;;;;;;0.63;100.00;100543.97;5041726;28;20059;-54
2022/01/08 01:59:43;;;;;;;2.22;0.85;;;;;;;0.68;100.00;100543.59;5043143;28;20136;-52
2022/01/08 02:02:09;;;;;;;5.47;1.20;;;;;;;0.68;100.00;100539.19;5035964;28;20043;-52
2022/01/08 02:04:34;;;;;;;2.42;2.22;;;;;;;0.70;100.00;100534.69;5042070;28;20021;-52
2022/01/08 02:07:00;;;;;;;2.42;1.75;;;;;;;0.71;100.00;100523.28;5041243;28;20044;-52
2022/01/08 02:09:25;;;;;;;3.38;1.08;;;;;;;0.68;100.00;100510.47;5042304;28;20045;-53
2022/01/08 02:11:55;;;;;;;6.88;1.35;;;;;;;0.67;100.00;100505.38;5041840;28;20056;-53
2022/01/08 02:14:20;;;;;;;2.17;1.52;;;;;;;0.63;100.00;100495.19;5042858;28;20047;-54
2022/01/08 02:16:46;;;;;;;0.68;0.63;;;;;;;0.63;100.00;100497.81;5042382;28;20029;-50
2022/01/08 02:19:11;;;;;;;1.58;1.00;;;;;;;0.62;100.00;100495.31;5041152;28;20203;-51
2022/01/08 02:21:37;;;;;;;2.45;1.27;;;;;;;0.59;100.00;100499.00;5041605;28;20025;-51
2022/01/08 02:24:02;;;;;;;5.15;1.30;;;;;;;0.52;100.00;100500.47;5037552;28;20033;-51
2022/01/08 02:26:27;;;;;;;2.03;1.38;;;;;;;0.46;100.00;100492.31;5042667;28;20047;-52
2022/01/08 02:28:53;;;;;;;1.65;0.93;;;;;;;0.41;100.00;100484.84;5038022;28;20037;-52
2022/01/08 02:31:25;;;;;;;4.80;1.60;;;;;;;0.44;100.00;100474.19;5038105;28;20397;-52
2022/01/08 02:33:50;;;;;;;8.15;2.25;;;;;;;0.41;100.00;100462.22;5041030;28;20030;-52
2022/01/08 02:36:16;;;;;;;5.15;1.52;;;;;;;0.40;100.00;100463.16;5041937;28;20039;-54
2022/01/08 02:38:42;;;;;;;4.07;1.00;;;;;;;0.42;100.00;100468.28;5040548;28;20512;-51
2022/01/08 02:41:08;;;;;;;2.78;1.58;;;;;;;0.46;100.00;100477.47;5037364;28;20037;-54
2022/01/08 02:43:40;;;;;;;2.45;0.93;;;;;;;0.50;100.00;100472.88;5023144;28;20028;-51
2022/01/08 02:46:06;;;;;;;2.45;1.13;;;;;;;0.54;100.00;100477.72;5038633;28;20063;-54
2022/01/08 02:48:31;;;;;;;7.07;1.85;;;;;;;0.57;100.00;100461.78;5042444;28;20086;-51
2022/01/08 02:50:57;;;;;;;2.13;1.27;;;;;;;0.58;100.00;100460.81;5042667;28;20029;-52
2022/01/08 02:53:22;;;;;;;3.22;1.45;;;;;;;0.62;100.00;100445.72;5042597;28;20037;-53
2022/01/08 02:55:49;;;;;;;5.10;1.05;;;;;;;0.64;100.00;100449.88;5040338;28;20483;-52
2022/01/08 02:58:14;;;;;;;3.25;1.23;;;;;;;0.68;100.00;100444.41;5042163;28;20032;-53
2022/01/08 03:00:39;;;;;;;3.72;1.98;;;;;;;0.68;100.00;100440.03;5040277;28;20070;-54
2022/01/08 03:03:05;;;;;;;6.38;1.60;;;;;;;0.72;100.00;100430.13;5035383;28;20111;-50
2022/01/08 03:05:30;;;;;;;1.90;1.27;;;;;;;0.74;100.00;100425.63;5022888;28;20052;-52
2022/01/08 03:07:55;;;;;;;2.90;1.40;;;;;;;0.72;100.00;100430.97;5037629;28;20108;-51
2022/01/08 03:10:21;;;;;;;6.25;1.90;;;;;;;0.73;100.00;100418.75;5037847;28;20405;-52
2022/01/08 03:12:46;;;;;;;4.70;1.60;;;;;;;0.73;100.00;100416.16;5032733;28;20036;-51
2022/01/08 03:15:20;;;;;;;2.58;1.25;;;;;;;0.74;100.00;100408.19;5036575;28;20112;-49
2022/01/08 03:17:46;;;;;;;5.25;1.52;;;;;;;0.76;100.00;100410.66;5035437;28;20071;-51
2022/01/08 03:20:14;;;;;;;6.28;2.15;;;;;;;0.78;100.00;100412.19;5036137;28;20052;-55
2022/01/08 03:22:42;;;;;;;6.32;1.92;;;;;;;0.83;100.00;100412.63;5038569;28;20035;-52
2022/01/08 03:25:09;;;;;;;5.32;1.52;;;;;;;0.86;100.00;100409.75;5034887;28;20037;-51
2022/01/08 03:27:35;;;;;;;3.95;2.03;;;;;;;0.90;100.00;100404.28;5036604;28;20083;-53
2022/01/08 03:30:03;;;;;;;5.25;1.27;;;;;;;0.92;100.00;100407.59;5037252;28;20039;-54
2022/01/08 03:32:28;;;;;;;6.10;1.60;;;;;;;0.94;100.00;100396.06;5035980;28;20063;-54
2022/01/08 03:34:54;;;;;;;2.97;1.60;;;;;;;0.92;100.00;100392.75;5038455;28;20033;-49
2022/01/08 03:37:19;;;;;;;5.88;1.35;;;;;;;0.92;100.00;100378.88;5039499;28;20032;-50
2022/01/08 03:39:45;;;;;;;5.00;1.52;;;;;;;0.91;100.00;100370.22;5034432;28;20743;-51
2022/01/08 03:42:10;;;;;;;6.72;2.35;;;;;;;0.92;100.00;100361.41;5035217;28;20029;-51
2022/01/08 03:44:36;;;;;;;3.03;1.48;;;;;;;0.92;100.00;100368.44;5036175;28;20088;-53
2022/01/08 03:47:28;;;;;;;2.90;2.30;;;;;;;0.94;100.00;100354.28;5017328;28;20029;-51
2022/01/08 03:49:54;;;;;;;;;;;;;;;0.96;100.00;100359.38;5034169;28;20434;-51
2022/01/08 03:52:20;;;;;;;4.22;1.48;;;;;;;0.95;100.00;100348.09;5032075;28;19963;-53
2022/01/08 03:54:45;;;;;;;4.43;2.25;;;;;;;0.97;100.00;100348.78;5039765;28;20396;-53
2022/01/08 03:57:10;;;;;;;4.43;2.05;;;;;;;0.97;100.00;100335.75;5032226;28;20470;-50
2022/01/08 03:59:36;;;;;;;5.50;1.98;;;;;;;0.96;100.00;100317.63;5035827;28;20445;-51
2022/01/08 04:02:02;;;;;;;5.75;2.45;;;;;;;0.95;100.00;100301.09;5033144;28;20091;-54
2022/01/08 04:04:27;;;;;;;5.78;2.78;;;;;;;0.97;100.00;100293.16;5034319;28;20048;-55
2022/01/08 04:06:52;;;;;;;4.00;1.95;;;;;;;0.97;100.00;100298.38;5035432;28;20033;-52
2022/01/08 04:09:18;;;;;;;7.97;1.75;;;;;;;0.97;100.00;100317.47;5037235;28;20039;-52
2022/01/08 04:11:44;;;;;;;3.20;1.85;;;;;;;1.00;100.00;100313.75;5034458;28;20033;-52
2022/01/08 04:14:09;;;;;;;5.63;1.55;;;;;;;1.01;100.00;100304.97;5033265;28;20036;-53
2022/01/08 04:16:39;;;;;;;7.25;2.20;;;;;;;1.04;100.00;100289.03;5033156;28;20029;-51
2022/01/08 04:19:04;;;;;;;3.05;1.30;;;;;;;1.01;100.00;100279.69;5034514;28;20036;-52
2022/01/08 04:24:02;;;;;;;7.30;2.45;;;;;;;0.99;100.00;100280.78;5032525;28;20032;-51
2022/01/08 04:26:27;;;;;;;9.48;2.70;;;;;;;0.92;100.00;100274.44;5035367;28;20026;-52
2022/01/08 04:28:53;;;;;;;4.78;1.13;;;;;;;0.87;100.00;100267.81;5036924;28;20033;-52
2022/01/08 04:31:19;;;;;;;2.08;1.70;;;;;;;0.83;100.00;100270.84;5031577;28;20033;-53
2022/01/08 04:33:45;;;;;;;4.47;1.45;;;;;;;0.82;100.00;100251.75;5032548;28;20438;-49
2022/01/08 04:36:10;;;;;;;4.70;1.60;;;;;;;0.86;100.00;100247.09;5037886;28;20485;-50
2022/01/08 04:38:36;;;;;;;3.30;2.72;;;;;;;0.92;100.00;100233.50;5039891;28;20155;-52
2022/01/08 04:41:01;;;;;;;3.47;1.58;;;;;;;0.95;100.00;100233.22;5050083;28;21226;-50
2022/01/08 04:43:28;;;;;;;6.35;2.20;;;;;;;0.97;100.00;100225.25;5041159;28;20083;-53
2022/01/08 04:45:53;;;;;;;4.60;1.55;;;;;;;0.97;100.00;100207.81;5040108;28;20029;-50
2022/01/08 04:48:19;;;;;;;1.85;1.35;;;;;;;0.96;100.00;100211.38;5040898;28;20570;-53
2022/01/08 04:50:45;;;;;;;3.78;1.58;;;;;;;0.98;100.00;100206.88;5044645;28;20051;-51
2022/01/08 04:53:10;;;;;;;4.80;1.10;;;;;;;1.00;100.00;100204.91;5034113;28;20037;-53
2022/01/08 04:55:36;;;;;;;6.78;2.25;;;;;;;1.02;100.00;100200.38;5047697;28;20113;-52
2022/01/08 04:58:02;;;;;;;3.10;1.45;;;;;;;1.03;100.00;100182.94;5040956;28;20025;-50
2022/01/08 05:00:27;;;;;;;3.33;1.38;;;;;;;1.03;100.00;100173.34;5035275;28;20120;-52
2022/01/08 05:02:53;;;;;;;4.53;1.40;;;;;;;1.05;100.00;100175.78;5039717;28;20040;-51
2022/01/08 05:05:18;;;;;;;4.32;2.30;;;;;;;1.08;100.00;100175.50;5039070;28;20034;-54
2022/01/08 05:07:43;;;;;;;5.18;1.67;;;;;;;1.12;100.00;100170.88;5043658;28;20466;-54
2022/01/08 05:10:09;;;;;;;4.15;1.88;;;;;;;1.13;100.00;100175.94;5043311;28;20065;-52
2022/01/08 05:12:35;;;;;;;2.92;1.73;;;;;;;1.14;100.00;100163.72;5050495;28;20037;-50
2022/01/08 05:15:02;;;;;;;1.67;1.58;;;;;;;1.14;100.00;100154.09;5049339;28;20029;-52
2022/01/08 05:17:35;;;;;;;3.42;1.08;;;;;;;1.17;100.00;100158.22;5042926;28;20044;-49
2022/01/08 05:20:05;;;;;;;3.25;1.42;;;;;;;1.21;100.00;100154.34;5037788;28;20029;-51
2022/01/08 05:22:42;;;;;;;5.13;2.83;;;;;;;1.24;100.00;100148.84;5044858;28;20063;-55
2022/01/08 05:25:08;;;;;;;1.75;1.15;;;;;;;1.29;100.00;100146.63;5046090;28;20028;-49
2022/01/08 05:27:33;;;;;;;3.83;1.35;;;;;;;1.35;100.00;100143.50;5041359;28;20496;-49
2022/01/08 05:29:58;;;;;;;3.30;0.77;;;;;;;1.42;100.00;100154.19;5043207;28;20045;-51
2022/01/08 05:32:24;;;;;;;8.23;1.73;;;;;;;1.48;100.00;100149.25;5040197;28;20125;-51
2022/01/08 05:34:51;;;;;;;4.32;1.98;;;;;;;1.57;100.00;100139.72;5044653;28;20056;-52
2022/01/08 05:37:18;;;;;;;2.03;1.13;;;;;;;1.59;100.00;100150.88;5041014;28;20064;-50
2022/01/08 05:39:44;;;;;;;1.60;1.33;;;;;;;1.60;100.00;100139.47;5029317;28;20029;-54
2022/01/08 05:42:09;;;;;;;1.13;0.88;;;;;;;1.64;100.00;100143.44;5043592;28;20066;-54
2022/01/08 05:44:35;;;;;;;3.40;1.05;;;;;;;1.64;100.00;100134.75;5045295;28;20033;-50
2022/01/08 05:47:01;;;;;;;6.15;1.17;;;;;;;1.66;100.00;100130.22;5035638;28;20482;-54
2022/01/08 05:49:26;;;;;;;3.55;1.30;;;;;;;1.69;100.00;100130.75;5044636;28;20061;-50
2022/01/08 05:51:52;;;;;;;5.72;1.30;;;;;;;1.71;100.00;100114.94;5041374;28;20067;-55
2022/01/08 05:54:18;;;;;;;3.05;1.10;;;;;;;1.73;100.00;100106.00;5045648;28;20041;-55
2022/01/08 05:56:43;;;;;;;2.25;0.88;;;;;;;1.78;100.00;100100.31;5044026;28;20025;-53
2022/01/08 05:59:08;;;;;;;1.58;0.57;;;;;;;1.82;100.00;100096.47;5041126;28;20512;-54
2022/01/08 06:01:34;;;;;;;6.95;0.90;;;;;;;1.86;100.00;100078.69;5039862;28;20029;-52
2022/01/08 06:04:03;;;;;;;2.38;0.65;;;;;;;1.90;100.00;100069.59;5045782;28;20024;-50
2022/01/08 06:06:29;;;;;;;1.98;0.75;;;;;;;1.93;100.00;100070.13;5046018;28;20036;-52
2022/01/08 06:08:55;;;;;;;1.75;0.75;;;;;;;1.95;100.00;100075.22;5046093;28;20064;-54
2022/01/08 06:11:20;;;;;;;0.65;0.47;;;;;;;1.95;100.00;100073.41;5044064;28;20033;-54
2022/01/08 06:13:46;;;;;;;3.28;0.88;;;;;;;2.02;100.00;100059.78;5040228;28;20088;-54
2022/01/08 06:16:11;;;;;;;4.75;0.68;;;;;;;2.03;100.00;100054.38;5042679;28;20036;-55
2022/01/08 06:18:38;;;;;;;4.55;1.20;;;;;;;2.04;100.00;100042.97;5045405;28;20032;-56
2022/01/08 06:21:04;;;;;;;1.85;0.77;;;;;;;2.10;100.00;100026.69;5043629;28;20040;-53
2022/01/08 06:23:30;;;;;;;3.22;0.80;;;;;;;2.13;100.00;100030.78;5045511;28;20497;-52
2022/01/08 06:25:55;;;;;;;0.82;0.22;;;;;;;2.15;100.00;100019.22;5046183;28;20029;-54
2022/01/08 06:28:21;;;;;;;1.95;0.65;;;;;;;2.18;100.00;100013.69;5045298;28;20060;-49
2022/01/08 06:30:47;;;;;;;5.22;1.00;;;;;;;2.21;100.00;100012.56;5040287;28;20031;-52
2022/01/08 06:33:13;;;;;;;3.63;0.47;;;;;;;2.23;100.00;100005.41;5038810;28;20041;-53
2022/01/08 06:35:39;;;;;;;4.70;0.90;;;;;;;2.31;100.00;100002.03;5045022;28;20024;-53
2022/01/08 06:38:04;;;;;;;2.60;1.38;;;;;;;2.32;100.00;99991.44;5040550;28;20505;-53
2022/01/08 06:40:30;;;;;;;1.25;0.45;;;;;;;2.34;100.00;99983.41;5042884;28;20033;-51
2022/01/08 06:42:55;;;;;;;3.95;0.70;;;;;;;2.39;100.00;99974.13;5038267;28;20044;-53
2022/01/08 06:45:20;;;;;;;2.97;0.82;;;;;;;2.45;100.00;99966.66;5037366;28;20481;-52
2022/01/08 06:47:46;;;;;;;4.07;1.10;;;;;;;2.49;100.00;99965.41;5052053;28;20029;-54
2022/01/08 06:50:12;;;;;;;4.90;1.48;;;;;;;2.51;100.00;99960.84;5023756;28;20102;-52
2022/01/08 06:52:38;;;;;;;1.50;1.05;;;;;;;2.53;100.00;99954.47;5041130;28;20112;-52
2022/01/08 06:55:04;;;;;;;5.03;1.38;;;;;;;2.53;100.00;99944.00;5036148;28;20059;-53
2022/01/08 06:57:29;;;;;;;4.38;1.42;;;;;;;2.55;100.00;99938.59;5041711;28;20824;-51
2022/01/08 06:59:54;;;;;;;7.07;1.33;;;;;;;2.57;100.00;99934.06;5040028;28;20424;-52
2022/01/08 07:02:20;;;;;;;5.35;0.93;;;;;;;2.57;100.00;99928.81;5038298;28;20381;-55
2022/01/08 07:04:45;;;;;;;1.05;0.88;;;;;;;2.60;100.00;99918.03;5041189;28;20052;-51
2022/01/08 07:07:11;;;;;;;5.30;0.30;;;;;;;2.62;100.00;99905.63;5041223;28;20024;-52
2022/01/08 07:09:36;;;;;;;12.35;1.85;;;;;;;2.63;100.00;99902.03;5038490;28;20123;-50
2022/01/08 07:12:01;;;;;;;5.43;1.77;;;;;;;2.61;100.00;99889.09;5037090;28;20041;-50
2022/01/08 07:14:27;;;;;;;5.05;0.77;;;;;;;2.66;100.00;99886.03;5033262;28;20391;-52
2022/01/08 07:16:54;;;;;;;1.70;0.90;;;;;;;2.69;100.00;99885.72;5036551;28;20025;-55
2022/01/08 07:19:20;;;;;;;8.20;1.20;;;;;;;2.72;100.00;99871.50;5034572;28;20033;-51
2022/01/08 07:21:45;;;;;;;13.73;1.50;;;;;;;2.76;100.00;99873.66;5029933;28;20029;-54
2022/01/08 07:24:11;;;;;;;7.55;1.20;;;;;;;2.76;100.00;99864.97;5035784;28;20037;-52
2022/01/08 07:26:36;;;;;;;4.28;1.27;;;;;;;2.77;100.00;99867.44;5033825;28;20028;-54
2022/01/08 07:29:02;;;;;;;1.52;0.77;;;;;;;2.81;100.00;99853.06;5033869;28;20478;-55
2022/01/08 07:31:27;;;;;;;7.78;1.10;;;;;;;2.81;100.00;99853.06;5042362;28;20389;-49
2022/01/08 07:33:52;;;;;;;6.97;2.05;;;;;;;2.83;100.00;99842.41;5030416;28;20088;-54
2022/01/08 07:36:18;;;;;;;5.30;1.10;;;;;;;2.85;100.00;99832.63;5039285;28;20033;-53
2022/01/08 07:38:44;;;;;;;3.65;2.80;;;;;;;2.92;100.00;99823.16;5035032;28;20127;-54
2022/01/08 07:41:09;;;;;;;14.20;2.55;;;;;;;2.95;100.00;99819.41;5036762;28;20136;-52
2022/01/08 07:43:34;;;;;;;3.72;1.80;;;;;;;3.00;100.00;99811.91;5037509;28;20034;-54
2022/01/08 07:46:00;;;;;;;5.60;2.17;;;;;;;3.08;100.00;99819.78;5035622;28;20052;-56
2022/01/08 07:48:25;;;;;;;8.00;2.50;;;;;;;3.14;100.00;99811.28;5039738;28;20048;-52
2022/01/08 07:50:50;;;;;;;5.85;1.20;;;;;;;3.19;100.00;99798.53;5038200;28;20409;-54
2022/01/08 07:53:16;;;;;;;5.57;1.45;;;;;;;3.25;100.00;99790.03;5038910;28;20035;-54
2022/01/08 07:55:41;;;;;;;9.00;1.27;;;;;;;3.30;100.00;99780.84;5039763;28;20454;-54
2022/01/08 07:58:07;;;;;;;3.33;0.52;;;;;;;3.36;100.00;99761.88;5034594;28;20558;-51
2022/01/08 08:00:32;;;;;;;3.90;2.58;;;;;;;3.40;100.00;99761.38;5039366;28;20540;-51
2022/01/08 08:02:58;;;;;;;13.88;3.10;;;;;;;3.47;100.00;99748.47;5022767;28;20104;-50
2022/01/08 08:05:23;;;;;;;8.32;1.02;;;;;;;3.56;100.00;99742.22;5041915;28;20489;-51
2022/01/08 08:07:48;;;;;;;7.03;1.35;;;;;;;3.62;100.00;99728.47;5036509;28;20036;-55
2022/01/08 08:10:19;;;;;;;4.63;0.75;;;;;;;3.72;100.00;99721.25;5036944;28;20039;-53
2022/01/08 08:12:45;;;;;;;4.40;1.98;;;;;;;3.80;100.00;99711.75;5037730;28;20482;-49
2022/01/08 08:15:13;;;;;;;8.75;1.88;;;;;;;3.92;100.00;99703.38;5043056;28;20028;-53
2022/01/08 08:17:38;;;;;;;8.60;0.93;;;;;;;4.00;100.00;99694.69;5044001;28;20126;-49
2022/01/08 08:20:05;;;;;;;13.63;2.42;;;;;;;4.04;100.00;99687.28;5041866;28;20036;-51
2022/01/08 08:22:30;;;;;;;6.88;1.17;;;;;;;4.10;100.00;99679.53;5026851;28;20032;-50
2022/01/08 08:24:55;;;;;;;3.40;1.05;;;;;;;4.14;100.00;99677.41;5042554;28;20264;-51
2022/01/08 08:27:21;;;;;;;9.32;1.52;;;;;;;4.23;100.00;99662.44;5037265;28;20034;-50
2022/01/08 08:29:46;;;;;;;9.80;2.42;;;;;;;4.27;100.00;99666.38;5043200;28;20396;-50
2022/01/08 08:32:12;;;;;;;6.47;1.50;;;;;;;4.34;100.00;99655.03;5042118;28;20045;-52
2022/01/08 08:34:38;;;;;;;17.33;3.38;;;;;;;4.43;100.00;99650.56;5038295;28;20473;-51
2022/01/08 08:37:03;;;;;;;15.95;3.60;;;;;;;4.55;100.00;99640.50;5034065;28;20070;-53
2022/01/08 08:39:29;;;;;;;20.25;2.65;;;;;;;4.71;100.00;99629.91;5036683;28;20025;-54
2022/01/08 08:41:54;;;;;;;8.88;1.70;;;;;;;4.82;100.00;99629.47;5039895;28;20029;-53
2022/01/08 08:44:20;;;;;;;6.63;2.33;;;;;;;4.90;100.00;99609.41;5039104;28;20405;-52
2022/01/08 08:46:45;;;;;;;11.70;3.05;;;;;;;4.97;100.00;99603.28;5038157;28;20075;-54
2022/01/08 08:49:11;;;;;;;4.90;1.02;;;;;;;5.03;100.00;99599.97;5045684;28;20567;-50
2022/01/08 08:51:37;;;;;;;7.75;2.03;;;;;;;5.09;100.00;99598.44;5043861;28;20029;-50
2022/01/08 08:54:02;;;;;;;16.95;3.40;;;;;;;5.16;100.00;99601.16;5020747;28;20044;-54
2022/01/08 08:56:29;;;;;;;12.55;1.45;;;;;;;5.25;100.00;99585.16;5042133;28;20112;-51
2022/01/08 08:58:55;;;;;;;7.68;2.28;;;;;;;5.36;100.00;99576.00;5044171;28;20037;-54
2022/01/08 09:01:20;;;;;;;22.98;3.45;;;;;;;5.49;100.00;99571.94;5040339;28;20071;-50
2022/01/08 09:03:46;;;;;;;5.78;1.10;;;;;;;5.54;100.00;99554.63;5038621;28;20032;-51
2022/01/08 09:06:11;;;;;;;7.97;1.38;;;;;;;5.61;100.00;99557.38;5048544;28;20283;-49
2022/01/08 09:08:37;;;;;;;13.60;2.53;;;;;;;5.66;100.00;99547.13;5047170;28;20396;-54
2022/01/08 09:11:02;;;;;;;11.25;1.08;;;;;;;5.74;100.00;99543.59;5023790;28;20032;-50
2022/01/08 09:13:28;;;;;;;11.70;4.05;;;;;;;5.77;100.00;99533.50;5039848;28;20048;-57
2022/01/08 09:15:54;;;;;;;7.32;1.92;;;;;;;5.84;100.00;99531.78;5039881;28;20033;-53
2022/01/08 09:18:20;;;;;;;6.75;0.90;;;;;;;5.88;100.00;99514.59;5043508;28;20048;-50
2022/01/08 09:20:46;;;;;;;10.55;2.75;;;;;;;5.86;100.00;99508.75;5041443;28;20056;-53
2022/01/08 09:23:11;;;;;;;5.82;2.33;;;;;;;5.92;100.00;99503.75;5039647;28;20117;-51
2022/01/08 09:25:37;;;;;;;12.57;2.58;;;;;;;6.00;100.00;99506.28;5033872;28;20136;-54
2022/01/08 09:28:03;;;;;;;9.38;2.65;;;;;;;6.09;100.00;99494.63;5032853;28;20040;-52
2022/01/08 09:30:28;;;;;;;8.45;1.00;;;;;;;6.09;100.00;99487.56;5039286;28;20314;-53
2022/01/08 09:32:55;;;;;;;19.30;0.93;;;;;;;6.15;100.00;99472.84;5035511;28;20078;-53
2022/01/08 09:35:22;;;;;;;13.32;3.15;;;;;;;6.19;100.00;99466.19;5036867;28;20040;-51
2022/01/08 09:37:48;;;;;;;12.43;3.72;;;;;;;6.24;100.00;99463.81;5031771;28;20128;-49
2022/01/08 09:40:16;;;;;;;5.85;1.00;;;;;;;6.25;100.00;99446.22;5033096;28;20824;-50
2022/01/08 09:42:43;;;;;;;8.30;1.98;;;;;;;6.36;100.00;99450.16;5040836;28;20028;-54
2022/01/08 09:45:09;;;;;;;11.48;2.47;;;;;;;6.39;100.00;99447.16;5038847;28;20048;-49
2022/01/08 09:47:35;;;;;;;16.80;3.03;;;;;;;6.41;100.00;99430.16;5044347;28;20036;-51
2022/01/08 09:50:02;;;;;;;7.93;2.03;;;;;;;6.43;100.00;99415.00;5046423;28;20063;-50
2022/01/08 09:52:29;;;;;;;11.30;2.95;;;;;;;6.48;100.00;99414.41;5035619;28;20064;-50
2022/01/08 09:54:54;;;;;;;8.45;0.95;;;;;;;6.56;100.00;99409.03;5038038;28;20095;-49
2022/01/08 09:57:20;;;;;;;10.60;1.33;;;;;;;6.61;100.00;99395.25;5029834;28;20029;-49
2022/01/08 09:59:45;;;;;;;1.77;0.60;;;;;;;6.62;100.00;99384.53;5035686;28;20041;-52
2022/01/08 10:02:11;;;;;;;7.90;1.58;;;;;;;6.61;100.00;99376.81;5037913;28;20025;-48
2022/01/08 10:04:38;;;;;;;5.15;1.55;;;;;;;6.62;100.00;99367.94;5035284;28;20057;-52
2022/01/08 10:07:12;;;;;;;4.30;1.35;;;;;;;6.65;100.00;99363.09;5034565;28;20033;-54
2022/01/08 10:09:38;;;;;;;3.88;1.10;;;;;;;6.71;100.00;99343.03;5041599;28;20110;-50
2022/01/08 10:12:04;;;;;;;3.47;0.80;;;;;;;6.74;100.00;99337.41;5033871;28;20530;-51
2022/01/08 10:17:13;;;;;;;6.60;0.93;;;;;;;6.74;100.00;99329.50;5048549;28;20111;-52
2022/01/08 10:17:45;;;;;;;4.20;0.98;;;;;;;6.81;100.00;99319.00;5038270;28;20037;-53
2022/01/08 10:20:10;;;;;;;;;;;;;;;6.84;100.00;99319.44;5033611;28;20034;-51
2022/01/08 10:22:35;;;;;;;6.10;0.50;;;;;;;6.87;100.00;99302.44;5035512;28;20329;-50
2022/01/08 10:25:11;;;;;;;3.83;0.60;;;;;;;6.92;100.00;99305.28;5038857;28;20029;-54
2022/01/08 10:27:36;;;;;;;6.80;0.50;;;;;;;6.91;100.00;99293.09;5033767;28;20037;-53
2022/01/08 10:30:04;;;;;;;2.67;0.60;;;;;;;6.90;100.00;99281.75;5031512;28;20037;-61
2022/01/08 10:32:30;;;;;;;9.50;1.58;;;;;;;6.93;100.00;99276.09;5033824;28;20076;-55
2022/01/08 10:34:55;;;;;;;8.43;0.10;;;;;;;6.92;100.00;99266.56;5039164;28;20053;-52
2022/01/08 10:37:51;;;;;;;5.47;1.33;;;;;;;6.94;100.00;99256.66;5038677;28;20040;-54
2022/01/08 10:40:32;;;;;;;3.38;1.42;;;;;;;6.96;100.00;99245.91;5035971;28;20041;-51
2022/01/08 10:42:58;;;;;;;6.60;0.85;;;;;;;6.97;100.00;99245.72;5015249;28;20486;-49
2022/01/08 10:45:25;;;;;;;4.10;1.55;;;;;;;7.01;100.00;99229.50;5038618;28;20111;-50
2022/01/08 10:48:03;;;;;;;6.65;2.83;;;;;;;7.02;100.00;99213.47;5035904;28;20037;-56
2022/01/08 10:50:28;;;;;;;3.72;0.75;;;;;;;7.08;100.00;99206.63;5042209;28;20028;-56
2022/01/08 10:52:54;;;;;;;2.88;0.50;;;;;;;7.13;100.00;99204.19;5051407;28;20393;-49
2022/01/08 10:55:32;;;;;;;2.50;0.55;;;;;;;7.16;100.00;99183.50;5045550;28;20465;-50
2022/01/08 10:57:58;;;;;;;1.70;1.20;;;;;;;7.15;100.00;99171.34;5028847;28;20029;-55
2022/01/08 11:00:31;;;;;;;5.40;1.45;;;;;;;7.19;100.00;99164.66;5039738;28;20036;-52
2022/01/08 11:02:57;;;;;;;3.75;1.17;;;;;;;7.19;100.00;99156.72;5034563;28;20033;-51
2022/01/08 11:05:22;;;;;;;2.33;0.55;;;;;;;7.19;100.00;99145.38;5036481;28;20075;-52
2022/01/08 11:07:47;;;;;;;4.50;0.73;;;;;;;7.25;100.00;99144.56;5034636;28;20119;-52
2022/01/08 11:10:17;;;;;;;1.70;0.77;;;;;;;7.28;100.00;99133.63;5032465;28;20052;-53
2022/01/08 11:12:45;;;;;;;2.83;0.20;;;;;;;7.31;100.00;99124.50;5038183;28;20033;-53
2022/01/08 11:17:49;;;;;;;3.17;0.45;;;;;;;7.29;100.00;99100.16;5031497;28;20033;-52
2022/01/08 11:20:20;;;;;;;7.93;0.95;;;;;;;7.30;100.00;99099.16;5031202;28;20033;-52
2022/01/08 11:22:46;;;;;;;;;;;;;;;7.31;100.00;99096.31;5032988;28;20106;-56
2022/01/08 11:25:17;;;;;;;6.32;0.40;;;;;;;7.36;100.00;99095.72;5037080;28;19920;-55
2022/01/08 11:28:12;;;;;;;1.27;0.05;;;;;;;7.40;100.00;99071.34;5046066;28;20025;-50
2022/01/08 11:30:40;;;;;;;4.38;0.45;;;;;;;7.43;100.00;99068.31;5037130;28;20040;-55
2022/01/08 11:33:13;;;;;;;6.72;1.63;;;;;;;7.43;100.00;99062.22;5040969;28;20101;-50
2022/01/08 11:35:40;;;;;;;0.85;0.22;;;;;;;7.46;100.00;99059.19;5039441;28;20033;-51
2022/01/08 11:38:09;;;;;;;2.50;0.35;;;;;;;7.51;100.00;99050.63;5038762;28;20029;-50
2022/01/08 11:40:37;;;;;;;2.75;0.75;;;;;;;7.55;100.00;99049.22;5038655;28;20029;-51
2022/01/08 11:43:04;;;;;;;1.05;0.20;;;;;;;7.52;100.00;99037.25;5042031;28;20423;-55
2022/01/08 11:45:33;;;;;;;2.35;0.30;;;;;;;7.53;100.00;99028.31;5039391;28;20030;-49
2022/01/08 11:48:02;;;;;;;3.47;0.98;;;;;;;7.57;100.00;99020.81;5044336;28;20044;-54